Ambler Airport Ambler US
ICAO: PAFM
IATA:
Category: Medium
Scheduled Services:

Elevation: 334 ft
TransAlt. 18000 ft.

Airport Communications:
AWOS 3:132.1
ANCHORAGE CNTR:119.2
CTAF:122.7
KOTEZBUE RDO:122
TWEB:40.3

PAFM Zoom In..

Runways:

(A) RW 09 length 2400 ft width 60 ft
---- / hdg 91

(B) RW 18 length 3000 ft width 60 ft
---- / hdg 181

(C) RW 27 length 2400 ft width 60 ft
---- / hdg 271

(D) RW 36 length 3000 ft width 60 ft
---- / hdg 1

Location; PAFM
Day. 05 / Time. 18.36 Zulu
* Altimeter: 29.75
* Temperature: 08° c. 46.4°f.
* Wind from: 000° Speed 00 kn.
Dewpoint: 07° c.
Visibility: 10 Statute Miles.
Clouds: Broken 400 ft.
Clouds: Broken 8000 ft.
Clouds: Overcast 1000 ft.

PAFM 051836Z AUTO 00000KT 10SM BKN004 BKN080 OVC100 08/07 A2975 RMK AO2

Going to: --> -->


Wind - Calm.

 
 
jpsmedia worldairports.se 2020   terms of use